createdAt,value
2023-03-20T00:03:04.893Z,41.80
2023-03-20T00:08:13.054Z,53.20
2023-03-20T00:13:28.592Z,52.60
2023-03-20T00:18:36.652Z,52.50
2023-03-20T00:23:44.290Z,43.10
2023-03-20T00:28:52.799Z,36.80
2023-03-20T00:34:02.386Z,38.40
2023-03-20T00:39:10.153Z,35.50
2023-03-20T00:44:26.181Z,27.50
2023-03-20T00:49:35.782Z,33.60
2023-03-20T00:54:43.078Z,34.10
2023-03-20T00:59:58.136Z,33.00
2023-03-20T01:05:06.285Z,26.20
2023-03-20T01:10:15.515Z,32.40
2023-03-20T01:15:27.671Z,37.00
2023-03-20T01:20:35.506Z,34.40
2023-03-20T01:25:43.961Z,34.10
2023-03-20T01:30:53.067Z,35.70
2023-03-20T01:36:00.818Z,31.00
2023-03-20T01:41:14.163Z,32.90
2023-03-20T01:46:25.782Z,27.20
2023-03-20T01:51:36.418Z,26.70
2023-03-20T01:56:52.222Z,27.70
2023-03-20T02:02:00.501Z,27.90
2023-03-20T02:07:10.562Z,30.90
2023-03-20T02:12:22.454Z,27.40
2023-03-20T02:17:30.519Z,27.60
2023-03-20T02:23:25.599Z,33.90
2023-03-20T02:29:03.865Z,30.90
2023-03-20T02:34:40.361Z,32.00
2023-03-20T02:40:10.018Z,30.10
2023-03-20T02:45:26.394Z,32.90
2023-03-20T02:50:45.328Z,33.70
2023-03-20T02:56:04.016Z,38.50
2023-03-20T03:01:16.528Z,33.70
2023-03-20T03:06:30.086Z,36.50
2023-03-20T03:11:43.033Z,33.30
2023-03-20T03:16:53.608Z,36.10
2023-03-20T03:22:01.268Z,35.30
2023-03-20T03:27:15.367Z,31.40
2023-03-20T03:32:31.804Z,34.00
2023-03-20T03:37:48.425Z,31.50
2023-03-20T03:43:03.760Z,30.80
2023-03-20T03:48:16.347Z,34.60
2023-03-20T03:53:32.368Z,34.40
2023-03-20T03:58:42.994Z,37.10
2023-03-20T04:03:54.155Z,30.50
2023-03-20T04:09:01.793Z,32.50
2023-03-20T04:14:09.312Z,35.40
2023-03-20T04:19:17.308Z,35.50
2023-03-20T04:24:26.976Z,30.80
2023-03-20T04:29:34.858Z,37.90
2023-03-20T04:34:58.403Z,36.20
2023-03-20T04:40:24.645Z,37.20
2023-03-20T04:45:32.445Z,33.40
2023-03-20T04:50:40.426Z,38.00
2023-03-20T04:55:48.484Z,30.00
2023-03-20T05:00:56.374Z,37.70
2023-03-20T05:06:04.274Z,35.00
2023-03-20T05:11:12.844Z,31.00
2023-03-20T05:16:40.822Z,29.20
2023-03-20T05:22:08.061Z,26.70
2023-03-20T05:27:46.261Z,31.50
2023-03-20T05:33:11.938Z,29.10
2023-03-20T05:38:49.175Z,33.30
2023-03-20T05:44:02.470Z,34.20
2023-03-20T05:49:24.667Z,36.50
2023-03-20T05:54:54.602Z,33.50
2023-03-20T06:00:26.428Z,41.60
2023-03-20T06:05:53.597Z,41.70
2023-03-20T06:11:01.486Z,43.40
2023-03-20T06:16:11.749Z,46.70
2023-03-20T06:21:20.176Z,38.00
2023-03-20T06:26:27.799Z,34.00
2023-03-20T06:31:42.677Z,37.00
2023-03-20T06:36:53.737Z,44.40
2023-03-20T06:42:03.585Z,52.30
2023-03-20T06:47:11.426Z,48.30
2023-03-20T06:52:21.985Z,52.10
2023-03-20T06:57:38.547Z,48.10
2023-03-20T07:02:46.061Z,57.50
2023-03-20T07:07:54.970Z,52.20
2023-03-20T07:13:02.648Z,50.50
2023-03-20T07:18:10.682Z,60.40
2023-03-20T07:23:18.449Z,51.50
2023-03-20T07:28:26.080Z,49.10
2023-03-20T07:33:43.115Z,50.60
2023-03-20T07:38:50.960Z,52.10
2023-03-20T07:43:59.198Z,44.90
2023-03-20T07:49:23.553Z,47.30
2023-03-20T07:54:31.286Z,47.80
2023-03-20T07:59:38.985Z,42.50
2023-03-20T08:04:46.796Z,43.00
2023-03-20T08:09:54.495Z,37.20
2023-03-20T08:15:02.140Z,35.30
2023-03-20T08:20:11.713Z,31.80
2023-03-20T08:25:19.566Z,33.50
2023-03-20T08:30:27.600Z,34.60
2023-03-20T08:35:35.844Z,36.50
2023-03-20T08:40:44.111Z,40.70
2023-03-20T08:45:52.059Z,36.30
2023-03-20T08:50:59.854Z,36.80
2023-03-20T08:56:08.175Z,38.00
2023-03-20T09:01:16.073Z,34.60
2023-03-20T09:06:23.729Z,43.50
2023-03-20T09:11:31.493Z,39.00
2023-03-20T09:16:39.895Z,41.60
2023-03-20T09:21:48.010Z,44.20
2023-03-20T09:26:55.801Z,44.90
2023-03-20T09:32:03.782Z,38.50
2023-03-20T09:37:11.226Z,42.80
2023-03-20T09:42:29.159Z,39.70
2023-03-20T09:47:42.997Z,42.40
2023-03-20T09:52:59.656Z,44.60
2023-03-20T09:58:14.414Z,38.00
2023-03-20T10:03:30.056Z,41.10
2023-03-20T10:08:39.936Z,43.30
2023-03-20T10:14:06.126Z,47.80
2023-03-20T10:19:23.874Z,42.30
2023-03-20T10:24:37.089Z,45.40
2023-03-20T10:29:56.714Z,37.70
2023-03-20T10:35:22.753Z,36.70
2023-03-20T10:40:36.894Z,36.30
2023-03-20T10:45:48.643Z,38.20
2023-03-20T10:50:58.581Z,34.80
2023-03-20T10:56:12.353Z,34.50
2023-03-20T11:01:21.141Z,33.30
2023-03-20T11:06:33.424Z,33.70
2023-03-20T11:11:44.862Z,32.10
2023-03-20T11:16:56.877Z,36.10
2023-03-20T11:27:15.008Z,31.40
2023-03-20T11:32:29.613Z,33.20
2023-03-20T11:37:44.984Z,33.30
2023-03-20T11:43:11.523Z,33.00
2023-03-20T11:48:22.601Z,31.50
2023-03-20T11:53:34.410Z,33.90
2023-03-20T11:58:54.618Z,30.50
2023-03-20T12:04:07.587Z,30.50
2023-03-20T12:09:33.863Z,31.40
2023-03-20T12:14:45.664Z,29.30
2023-03-20T12:19:56.666Z,31.50
2023-03-20T12:25:13.318Z,32.10
2023-03-20T12:30:30.514Z,30.60
2023-03-20T12:35:43.400Z,30.70
2023-03-20T12:40:56.892Z,36.60
2023-03-20T12:46:11.132Z,34.80
2023-03-20T12:51:25.374Z,38.40
2023-03-20T12:56:50.147Z,36.60
2023-03-20T13:02:06.335Z,36.90
2023-03-20T13:07:22.455Z,30.90
2023-03-20T13:12:44.675Z,36.30
2023-03-20T13:17:58.420Z,31.70
2023-03-20T13:23:20.841Z,34.30
2023-03-20T13:28:35.740Z,31.00
2023-03-20T13:33:54.411Z,35.30
2023-03-20T13:39:08.432Z,37.30
2023-03-20T13:44:21.638Z,34.60
2023-03-20T13:49:35.247Z,32.50
2023-03-20T13:55:02.557Z,28.00
2023-03-20T14:00:27.017Z,31.00
2023-03-20T14:05:40.778Z,27.90
2023-03-20T14:10:48.658Z,29.70
2023-03-20T14:16:03.465Z,31.30
2023-03-20T14:21:17.087Z,29.30
2023-03-20T14:26:28.679Z,32.90
2023-03-20T14:31:38.866Z,29.20
2023-03-20T14:37:04.156Z,32.80
2023-03-20T14:42:33.643Z,36.70
2023-03-20T14:47:51.468Z,36.40
2023-03-20T14:53:12.502Z,33.30
2023-03-20T14:58:57.488Z,31.30
2023-03-20T15:04:08.982Z,39.40
2023-03-20T15:09:17.686Z,40.40
2023-03-20T15:14:28.605Z,39.40
2023-03-20T15:19:41.816Z,35.60
2023-03-20T15:24:56.311Z,37.10
2023-03-20T15:30:05.009Z,42.00
2023-03-20T15:35:17.284Z,39.70
2023-03-20T15:40:40.210Z,37.70
2023-03-20T15:45:52.840Z,37.30
2023-03-20T15:51:06.418Z,38.20
2023-03-20T15:56:19.002Z,39.80
2023-03-20T16:01:28.031Z,35.60
2023-03-20T16:06:35.547Z,39.90
2023-03-20T16:11:45.740Z,39.20
2023-03-20T16:16:55.883Z,39.90
2023-03-20T16:22:07.468Z,36.20
2023-03-20T16:27:24.316Z,38.40
2023-03-20T16:32:40.345Z,39.70
2023-03-20T16:37:54.582Z,46.80
2023-03-20T16:43:09.063Z,94.20
2023-03-20T16:48:34.380Z,76.40
2023-03-20T16:53:47.225Z,60.50
2023-03-20T16:58:56.779Z,49.10
2023-03-20T17:04:19.953Z,39.70
2023-03-20T17:09:30.876Z,39.20
2023-03-20T17:14:38.417Z,88.70
2023-03-20T17:19:47.551Z,121.00
2023-03-20T17:24:56.396Z,44.10
2023-03-20T17:30:04.989Z,32.00
2023-03-20T17:35:13.423Z,28.00
2023-03-20T17:40:25.712Z,28.80
2023-03-20T17:45:33.618Z,97.60
2023-03-20T17:50:41.340Z,197.30
2023-03-20T17:55:49.544Z,129.00
2023-03-20T18:00:57.892Z,102.70
2023-03-20T18:06:05.712Z,139.60
2023-03-20T18:11:13.770Z,139.40
2023-03-20T18:16:23.111Z,162.80
2023-03-20T18:21:31.014Z,96.50
2023-03-20T18:26:38.616Z,57.30
2023-03-20T18:31:47.110Z,51.80
2023-03-20T18:36:54.755Z,40.50
2023-03-20T18:42:02.802Z,110.40
2023-03-20T18:47:11.524Z,44.70
2023-03-20T18:52:19.371Z,45.90
2023-03-20T18:57:27.474Z,48.70
2023-03-20T19:02:35.333Z,39.00
2023-03-20T19:07:43.101Z,44.60
2023-03-20T19:12:50.452Z,42.30
2023-03-20T19:17:58.873Z,46.90
2023-03-20T19:23:08.594Z,40.30
2023-03-20T19:28:34.580Z,41.50
2023-03-20T19:33:46.660Z,42.80
2023-03-20T19:38:54.492Z,59.70
2023-03-20T19:44:02.841Z,48.00
2023-03-20T19:49:18.103Z,46.90
2023-03-20T19:54:26.552Z,59.60
2023-03-20T19:59:34.786Z,51.50
2023-03-20T20:04:42.641Z,43.70
2023-03-20T20:09:49.837Z,44.80
2023-03-20T20:14:57.890Z,38.90
2023-03-20T20:20:07.024Z,36.30
2023-03-20T20:25:16.074Z,38.90
2023-03-20T20:30:23.913Z,34.40
2023-03-20T20:35:47.751Z,39.40
2023-03-20T20:40:59.521Z,33.70
2023-03-20T20:46:07.121Z,34.10
2023-03-20T20:51:15.059Z,36.80
2023-03-20T20:56:22.524Z,31.20
2023-03-20T21:01:30.566Z,32.60
2023-03-20T21:07:06.066Z,28.00
2023-03-20T21:12:06.383Z,35.40
2023-03-20T21:17:14.755Z,36.20
2023-03-20T21:22:22.928Z,34.80
2023-03-20T21:27:32.593Z,37.90
2023-03-20T21:32:41.455Z,39.30
2023-03-20T21:38:37.846Z,36.90
2023-03-20T21:43:18.992Z,35.50
2023-03-20T21:49:12.584Z,37.40
2023-03-20T21:54:48.455Z,39.30
2023-03-20T22:05:48.357Z,36.80
2023-03-20T22:27:35.234Z,42.00
2023-03-20T22:38:29.319Z,40.40
2023-03-20T22:48:44.918Z,40.70
2023-03-20T22:53:53.581Z,44.90
2023-03-20T22:59:02.348Z,44.00
2023-03-20T23:04:10.833Z,48.00
2023-03-20T23:09:19.152Z,44.80
2023-03-20T23:14:30.631Z,41.60
2023-03-20T23:19:47.791Z,43.70
2023-03-20T23:25:02.880Z,44.30
2023-03-20T23:30:20.766Z,40.90
2023-03-20T23:35:29.225Z,42.10
2023-03-20T23:40:36.968Z,41.90
2023-03-20T23:45:44.892Z,45.20
2023-03-20T23:50:53.838Z,43.90
2023-03-20T23:56:02.094Z,40.30
